createdAt,value
2018-10-18T00:01:25.991Z,100722
2018-10-18T00:03:54.837Z,100722
2018-10-18T00:06:23.676Z,100722
2018-10-18T00:08:52.537Z,100723
2018-10-18T00:11:22.115Z,100721
2018-10-18T00:13:50.961Z,100730
2018-10-18T00:16:19.800Z,100731
2018-10-18T00:18:48.634Z,100732
2018-10-18T00:21:17.487Z,100727
2018-10-18T00:23:46.329Z,100725
2018-10-18T00:26:15.288Z,100731
2018-10-18T00:28:44.746Z,100728
2018-10-18T00:31:13.590Z,100723
2018-10-18T00:33:43.173Z,100726
2018-10-18T00:36:12.110Z,100724
2018-10-18T00:38:40.861Z,100721
2018-10-18T00:41:09.694Z,100718
2018-10-18T00:43:38.543Z,100724
2018-10-18T00:46:08.127Z,100724
2018-10-18T00:48:36.976Z,100725
2018-10-18T00:51:05.821Z,100729
2018-10-18T00:53:34.759Z,100722
2018-10-18T00:56:03.531Z,100726
2018-10-18T00:58:32.351Z,100729
2018-10-18T01:01:01.198Z,100722
2018-10-18T01:03:30.076Z,100731
2018-10-18T01:05:58.958Z,100727
2018-10-18T01:08:27.746Z,100727
2018-10-18T01:10:56.598Z,100732
2018-10-18T01:13:25.429Z,100726
2018-10-18T01:15:55.048Z,100723
2018-10-18T01:18:24.641Z,100721
2018-10-18T01:20:54.233Z,100714
2018-10-18T01:23:23.074Z,100718
2018-10-18T01:25:51.932Z,100711
2018-10-18T01:28:20.787Z,100714
2018-10-18T01:30:49.612Z,100718
2018-10-18T01:33:19.204Z,100724
2018-10-18T01:35:48.051Z,100721
2018-10-18T01:38:16.992Z,100712
2018-10-18T01:40:45.727Z,100717
2018-10-18T01:43:14.559Z,100714
2018-10-18T01:45:43.417Z,100711
2018-10-18T01:48:12.307Z,100709
2018-10-18T01:50:41.112Z,100705
2018-10-18T01:53:09.953Z,100702
2018-10-18T01:55:38.802Z,100702
2018-10-18T01:58:07.639Z,100712
2018-10-18T02:00:36.478Z,100710
2018-10-18T02:03:05.325Z,100713
2018-10-18T02:05:34.155Z,100719
2018-10-18T02:08:03.800Z,100715
2018-10-18T02:10:32.574Z,100709
2018-10-18T02:13:02.156Z,100708
2018-10-18T02:15:31.001Z,100713
2018-10-18T02:17:59.838Z,100716
2018-10-18T02:20:28.667Z,100710
2018-10-18T02:22:57.516Z,100709
2018-10-18T02:25:26.358Z,100710
2018-10-18T02:27:55.212Z,100704
2018-10-18T02:30:24.128Z,100708
2018-10-18T02:32:52.911Z,100708
2018-10-18T02:35:21.777Z,100705
2018-10-18T02:37:51.365Z,100692
2018-10-18T02:40:20.203Z,100707
2018-10-18T02:42:49.054Z,100700
2018-10-18T02:45:18.641Z,100697
2018-10-18T02:47:47.482Z,100699
2018-10-18T02:50:16.327Z,100701
2018-10-18T02:52:45.164Z,100702
2018-10-18T02:55:14.005Z,100696
2018-10-18T02:57:42.855Z,100694
2018-10-18T03:00:11.785Z,100704
2018-10-18T03:02:41.288Z,100703
2018-10-18T03:05:10.125Z,100707
2018-10-18T03:07:38.973Z,100700
2018-10-18T03:10:08.402Z,100701
2018-10-18T03:12:37.247Z,100708
2018-10-18T03:15:06.101Z,100707
2018-10-18T03:17:34.934Z,100711
2018-10-18T03:20:03.782Z,100710
2018-10-18T03:22:32.626Z,100717
2018-10-18T03:25:01.470Z,100712
2018-10-18T03:27:30.295Z,100715
2018-10-18T03:29:59.756Z,100723
2018-10-18T03:32:28.591Z,100725
2018-10-18T03:34:57.435Z,100732
2018-10-18T03:37:26.278Z,100729
2018-10-18T03:39:55.864Z,100736
2018-10-18T03:42:24.712Z,100727
2018-10-18T03:44:53.549Z,100738
2018-10-18T03:47:22.404Z,100734
2018-10-18T03:49:51.308Z,100731
2018-10-18T03:52:20.099Z,100735
2018-10-18T03:54:48.945Z,100733
2018-10-18T03:57:17.802Z,100728
2018-10-18T03:59:46.743Z,100738
2018-10-18T04:02:15.486Z,100743
2018-10-18T04:04:44.337Z,100734
2018-10-18T04:07:13.178Z,100734
2018-10-18T04:09:42.769Z,100732
2018-10-18T04:12:11.634Z,100736
2018-10-18T04:14:40.462Z,100733
2018-10-18T04:17:10.035Z,100739
2018-10-18T04:19:38.882Z,100734
2018-10-18T04:22:07.727Z,100734
2018-10-18T04:24:37.321Z,100726
2018-10-18T04:27:06.160Z,100740
2018-10-18T04:29:35.034Z,100739
2018-10-18T04:32:03.864Z,100743
2018-10-18T04:34:32.713Z,100740
2018-10-18T04:37:01.557Z,100739
2018-10-18T04:39:30.393Z,100744
2018-10-18T04:41:59.240Z,100740
2018-10-18T04:44:28.073Z,100746
2018-10-18T04:46:56.956Z,100744
2018-10-18T04:49:25.779Z,100743
2018-10-18T04:51:54.623Z,100748
2018-10-18T04:54:24.217Z,100752
2018-10-18T04:56:53.106Z,100752
2018-10-18T04:59:21.915Z,100753
2018-10-18T05:01:50.757Z,100752
2018-10-18T05:04:19.587Z,100750
2018-10-18T05:06:48.429Z,100758
2018-10-18T05:09:17.270Z,100761
2018-10-18T05:11:46.860Z,100760
2018-10-18T05:14:16.218Z,100767
2018-10-18T05:16:44.570Z,100766
2018-10-18T05:19:13.504Z,100764
2018-10-18T05:21:42.272Z,100769
2018-10-18T05:24:11.108Z,100769
2018-10-18T05:26:39.947Z,100769
2018-10-18T05:29:08.822Z,100767
2018-10-18T05:31:37.656Z,100770
2018-10-18T05:34:06.482Z,100770
2018-10-18T05:36:36.066Z,100778
2018-10-18T05:39:04.942Z,100776
2018-10-18T05:41:33.747Z,100783
2018-10-18T05:44:02.586Z,100784
2018-10-18T05:46:31.497Z,100785
2018-10-18T05:49:00.341Z,100790
2018-10-18T05:51:29.138Z,100792
2018-10-18T05:53:58.103Z,100800
2018-10-18T05:56:26.821Z,100802
2018-10-18T05:58:55.681Z,100801
2018-10-18T06:01:24.506Z,100803
2018-10-18T06:03:53.352Z,100807
2018-10-18T06:06:22.936Z,100804
2018-10-18T06:08:51.775Z,100816
2018-10-18T06:11:21.432Z,100822
2018-10-18T06:13:50.247Z,100818
2018-10-18T06:16:19.094Z,100820
2018-10-18T06:18:47.947Z,100826
2018-10-18T06:21:16.781Z,100821
2018-10-18T06:23:45.616Z,100828
2018-10-18T06:26:14.467Z,100832
2018-10-18T06:28:43.299Z,100825
2018-10-18T06:31:12.158Z,100844
2018-10-18T06:33:40.991Z,100844
2018-10-18T06:36:09.856Z,100844
2018-10-18T06:38:39.451Z,100843
2018-10-18T06:41:08.393Z,100847
2018-10-18T06:43:37.144Z,100860
2018-10-18T06:46:06.006Z,100862
2018-10-18T06:48:34.886Z,100863
2018-10-18T06:51:03.691Z,100866
2018-10-18T06:53:32.551Z,100865
2018-10-18T06:56:01.390Z,100874
2018-10-18T06:58:30.250Z,100871
2018-10-18T07:00:59.102Z,100871
2018-10-18T07:03:27.962Z,100871
2018-10-18T07:05:56.830Z,100873
2018-10-18T07:08:25.638Z,100877
2018-10-18T07:10:54.590Z,100876
2018-10-18T07:13:23.321Z,100882
2018-10-18T07:15:52.178Z,100877
2018-10-18T07:18:21.032Z,100883
2018-10-18T07:20:49.887Z,100885
2018-10-18T07:23:19.484Z,100884
2018-10-18T07:25:49.066Z,100887
2018-10-18T07:28:17.913Z,100875
2018-10-18T07:30:46.761Z,100881
2018-10-18T07:33:16.354Z,100882
2018-10-18T07:35:45.185Z,100888
2018-10-18T07:38:14.028Z,100888
2018-10-18T07:40:42.871Z,100888
2018-10-18T07:43:11.717Z,100887
2018-10-18T07:45:41.333Z,100886
2018-10-18T07:48:11.030Z,100890
2018-10-18T07:50:39.801Z,100893
2018-10-18T07:53:08.675Z,100893
2018-10-18T07:55:37.471Z,100894
2018-10-18T07:58:06.326Z,100896
2018-10-18T08:00:35.208Z,100889
2018-10-18T08:03:04.014Z,100890
2018-10-18T08:05:32.863Z,100890
2018-10-18T08:08:01.713Z,100894
2018-10-18T08:10:30.557Z,100889
2018-10-18T08:12:59.462Z,100892
2018-10-18T08:15:28.246Z,100892
2018-10-18T08:17:57.094Z,100892
2018-10-18T08:20:25.946Z,100887
2018-10-18T08:22:54.777Z,100884
2018-10-18T08:25:23.634Z,100897
2018-10-18T08:27:52.464Z,100887
2018-10-18T08:30:22.058Z,100887
2018-10-18T08:32:50.909Z,100898
2018-10-18T08:35:19.738Z,100895
2018-10-18T08:37:48.633Z,100900
2018-10-18T08:40:17.480Z,100904
2018-10-18T08:42:46.300Z,100906
2018-10-18T08:45:15.135Z,100896
2018-10-18T08:47:43.976Z,100893
2018-10-18T08:50:12.816Z,100900
2018-10-18T08:52:41.669Z,100898
2018-10-18T08:55:11.121Z,100895
2018-10-18T08:57:39.946Z,100910
2018-10-18T09:00:08.795Z,100907
2018-10-18T09:02:37.637Z,100900
2018-10-18T09:05:06.488Z,100904
2018-10-18T09:07:35.319Z,100900
2018-10-18T09:10:04.906Z,100901
2018-10-18T09:12:33.749Z,100899
2018-10-18T09:15:02.600Z,100898
2018-10-18T09:17:31.448Z,100894
2018-10-18T09:20:00.291Z,100899
2018-10-18T09:22:29.890Z,100900
2018-10-18T09:24:58.783Z,100901
2018-10-18T09:27:27.861Z,100902
2018-10-18T09:29:56.662Z,100891
2018-10-18T09:32:26.242Z,100899
2018-10-18T09:34:55.087Z,100908
2018-10-18T09:37:23.932Z,100894
2018-10-18T09:39:52.799Z,100895
2018-10-18T09:42:21.644Z,100896
2018-10-18T09:44:50.588Z,100902
2018-10-18T09:47:19.339Z,100904
2018-10-18T09:49:48.182Z,100900
2018-10-18T09:52:17.014Z,100898
2018-10-18T09:54:45.862Z,100893
2018-10-18T09:57:15.317Z,100894
2018-10-18T09:59:44.157Z,100907
2018-10-18T10:02:12.992Z,100904
2018-10-18T10:04:41.834Z,100908
2018-10-18T10:07:11.359Z,100907
2018-10-18T10:09:40.098Z,100905
2018-10-18T10:12:08.935Z,100897
2018-10-18T10:14:38.520Z,100902
2018-10-18T10:17:07.378Z,100903
2018-10-18T10:19:36.197Z,100892
2018-10-18T10:22:05.050Z,100886
2018-10-18T10:24:33.901Z,100889
2018-10-18T10:27:03.480Z,100885
2018-10-18T10:29:32.325Z,100887
2018-10-18T10:32:01.177Z,100884
2018-10-18T10:34:30.765Z,100887
2018-10-18T10:36:59.643Z,100884
2018-10-18T10:39:28.450Z,100882
2018-10-18T10:41:57.305Z,100877
2018-10-18T10:44:26.181Z,100887
2018-10-18T10:46:54.971Z,100879
2018-10-18T10:49:23.814Z,100879
2018-10-18T10:51:52.682Z,100881
2018-10-18T10:54:21.516Z,100874
2018-10-18T10:56:50.349Z,100879
2018-10-18T10:59:19.190Z,100865
2018-10-18T11:01:48.030Z,100872
2018-10-18T11:04:16.874Z,100868
2018-10-18T11:06:45.743Z,100858
2018-10-18T11:09:14.674Z,100862
2018-10-18T11:11:43.407Z,100864
2018-10-18T11:14:12.324Z,100855
2018-10-18T11:16:41.104Z,100854
2018-10-18T11:19:09.933Z,100853
2018-10-18T11:21:38.909Z,100855
2018-10-18T11:24:07.655Z,100846
2018-10-18T11:26:36.446Z,100852
2018-10-18T11:29:06.033Z,100850
2018-10-18T11:31:34.878Z,100846
2018-10-18T11:34:03.730Z,100844
2018-10-18T11:36:32.585Z,100836
2018-10-18T11:39:01.430Z,100835
2018-10-18T11:41:30.278Z,100832
2018-10-18T11:43:59.173Z,100843
2018-10-18T11:46:27.966Z,100825
2018-10-18T11:48:56.829Z,100820
2018-10-18T11:51:25.686Z,100817
2018-10-18T11:53:54.521Z,100816
2018-10-18T11:56:23.376Z,100815
2018-10-18T11:58:52.228Z,100822
2018-10-18T12:01:21.810Z,100820
2018-10-18T12:03:50.643Z,100812
2018-10-18T12:06:19.493Z,100813
2018-10-18T12:08:48.342Z,100811
2018-10-18T12:11:17.281Z,100811
2018-10-18T12:13:46.772Z,100809
2018-10-18T12:16:15.617Z,100815
2018-10-18T12:18:44.478Z,100807
2018-10-18T12:21:14.056Z,100815
2018-10-18T12:23:42.901Z,100817
2018-10-18T12:26:11.839Z,100811
2018-10-18T12:28:41.329Z,100809
2018-10-18T12:31:10.171Z,100811
2018-10-18T12:33:39.019Z,100811
2018-10-18T12:36:07.889Z,100801
2018-10-18T12:38:36.739Z,100804
2018-10-18T12:41:05.775Z,100802
2018-10-18T12:43:35.186Z,100800
2018-10-18T12:46:04.035Z,100803
2018-10-18T12:48:32.951Z,100805
2018-10-18T12:51:02.489Z,100796
2018-10-18T12:53:31.331Z,100799
2018-10-18T12:56:00.195Z,100799
2018-10-18T12:58:29.785Z,100796
2018-10-18T13:00:59.368Z,100789
2018-10-18T13:03:28.220Z,100783
2018-10-18T13:05:57.067Z,100781
2018-10-18T13:08:25.922Z,100783
2018-10-18T13:10:54.765Z,100791
2018-10-18T13:13:23.613Z,100792
2018-10-18T13:15:52.471Z,100790
2018-10-18T13:18:21.317Z,100780
2018-10-18T13:20:50.184Z,100784
2018-10-18T13:23:19.010Z,100781
2018-10-18T13:25:47.851Z,100779
2018-10-18T13:28:16.704Z,100780
2018-10-18T13:30:45.588Z,100777
2018-10-18T13:33:14.397Z,100783
2018-10-18T13:35:43.253Z,100785
2018-10-18T13:38:12.919Z,100777
2018-10-18T13:40:41.759Z,100773
2018-10-18T13:43:10.529Z,100782
2018-10-18T13:45:40.119Z,100782
2018-10-18T13:48:09.055Z,100774
2018-10-18T13:50:37.817Z,100767
2018-10-18T13:53:07.410Z,100772
2018-10-18T13:55:36.256Z,100780
2018-10-18T13:58:05.097Z,100779
2018-10-18T14:00:34.697Z,100774
2018-10-18T14:03:03.550Z,100766
2018-10-18T14:05:32.472Z,100771
2018-10-18T14:08:02.007Z,100769
2018-10-18T14:10:30.818Z,100771
2018-10-18T14:12:59.671Z,100765
2018-10-18T14:15:29.259Z,100764
2018-10-18T14:17:58.239Z,100766
2018-10-18T14:20:26.955Z,100756
2018-10-18T14:22:56.586Z,100764
2018-10-18T14:25:25.365Z,100765
2018-10-18T14:27:54.334Z,100771
2018-10-18T14:30:23.205Z,100765
2018-10-18T14:32:52.017Z,100773
2018-10-18T14:35:21.615Z,100766
2018-10-18T14:37:50.571Z,100761
2018-10-18T14:40:19.406Z,100777
2018-10-18T14:42:49.003Z,100766
2018-10-18T14:45:17.831Z,100769
2018-10-18T14:47:46.700Z,100770
2018-10-18T14:50:15.618Z,100749
2018-10-18T14:52:44.359Z,100766
2018-10-18T14:55:13.210Z,100765
2018-10-18T14:57:42.068Z,100767
2018-10-18T15:00:10.926Z,100764
2018-10-18T15:02:39.784Z,100768
2018-10-18T15:05:08.670Z,100763
2018-10-18T15:07:37.469Z,100771
2018-10-18T15:10:06.345Z,100772
2018-10-18T15:12:35.197Z,100777
2018-10-18T15:15:04.023Z,100774
2018-10-18T15:17:32.866Z,100777
2018-10-18T15:20:01.749Z,100773
2018-10-18T15:22:30.554Z,100771
2018-10-18T15:24:59.453Z,100783
2018-10-18T15:27:28.365Z,100775
2018-10-18T15:29:57.110Z,100787
2018-10-18T15:32:26.786Z,100781
2018-10-18T15:34:56.309Z,100776
2018-10-18T15:37:25.127Z,100790
2018-10-18T15:39:53.983Z,100782
2018-10-18T15:42:22.838Z,100796
2018-10-18T15:44:51.687Z,100792
2018-10-18T15:47:20.713Z,100795
2018-10-18T15:49:49.429Z,100790
2018-10-18T15:52:18.272Z,100803
2018-10-18T15:54:47.107Z,100799
2018-10-18T15:57:16.028Z,100799
2018-10-18T15:59:44.825Z,100800
2018-10-18T16:02:13.678Z,100805
2018-10-18T16:04:42.566Z,100809
2018-10-18T16:07:11.412Z,100812
2018-10-18T16:09:40.261Z,100821
2018-10-18T16:12:09.098Z,100822
2018-10-18T16:14:37.963Z,100823
2018-10-18T16:17:06.935Z,100823
2018-10-18T16:19:35.670Z,100832
2018-10-18T16:22:04.534Z,100829
2018-10-18T16:24:33.372Z,100847
2018-10-18T16:27:02.208Z,100838
2018-10-18T16:29:31.061Z,100847
2018-10-18T16:31:59.920Z,100857
2018-10-18T16:34:28.768Z,100860
2018-10-18T16:36:57.660Z,100864
2018-10-18T16:39:26.479Z,100869
2018-10-18T16:41:55.380Z,100869
2018-10-18T16:44:24.207Z,100866
2018-10-18T16:46:53.088Z,100866
2018-10-18T16:49:21.900Z,100877
2018-10-18T16:51:50.739Z,100878
2018-10-18T16:54:19.643Z,100879
2018-10-18T16:56:48.423Z,100880
2018-10-18T16:59:17.274Z,100886
2018-10-18T17:01:46.183Z,100889
2018-10-18T17:04:15.077Z,100884
2018-10-18T17:06:43.857Z,100894
2018-10-18T17:09:12.704Z,100898
2018-10-18T17:11:41.552Z,100899
2018-10-18T17:14:10.478Z,100899
2018-10-18T17:16:39.256Z,100902
2018-10-18T17:19:08.115Z,100906
2018-10-18T17:21:36.956Z,100904
2018-10-18T17:24:05.836Z,100900
2018-10-18T17:26:34.692Z,100909
2018-10-18T17:29:03.510Z,100905
2018-10-18T17:31:32.362Z,100907
2018-10-18T17:34:01.251Z,100914
2018-10-18T17:36:30.834Z,100907
2018-10-18T17:38:59.637Z,100912
2018-10-18T17:41:28.488Z,100909
2018-10-18T17:43:57.340Z,100910
2018-10-18T17:46:26.176Z,100912
2018-10-18T17:48:55.019Z,100908
2018-10-18T17:51:23.894Z,100912
2018-10-18T17:53:52.781Z,100919
2018-10-18T17:56:21.591Z,100915
2018-10-18T17:58:50.441Z,100930
2018-10-18T18:01:19.319Z,100925
2018-10-18T18:03:48.178Z,100934
2018-10-18T18:06:17.207Z,100930
2018-10-18T18:08:45.872Z,100932
2018-10-18T18:11:15.451Z,100933
2018-10-18T18:13:44.880Z,100929
2018-10-18T18:16:14.480Z,100938
2018-10-18T18:18:43.318Z,100935
2018-10-18T18:21:12.160Z,100945
2018-10-18T18:23:41.753Z,100946
2018-10-18T18:26:10.609Z,100946
2018-10-18T18:28:39.448Z,100943
2018-10-18T18:31:09.099Z,100940
2018-10-18T18:33:37.905Z,100939
2018-10-18T18:36:06.763Z,100942
2018-10-18T18:38:35.611Z,100942
2018-10-18T18:41:05.294Z,100943
2018-10-18T18:43:34.138Z,100946
2018-10-18T18:46:02.974Z,100941
2018-10-18T18:48:31.822Z,100948
2018-10-18T18:51:00.756Z,100948
2018-10-18T18:53:29.546Z,100951
2018-10-18T18:55:58.370Z,100945
2018-10-18T18:58:27.961Z,100941
2018-10-18T19:00:56.804Z,100952
2018-10-18T19:03:25.639Z,100964
2018-10-18T19:05:54.502Z,100961
2018-10-18T19:08:23.356Z,100967
2018-10-18T19:10:52.257Z,100965
2018-10-18T19:13:21.094Z,100964
2018-10-18T19:15:49.909Z,100967
2018-10-18T19:18:18.789Z,100965
2018-10-18T19:20:48.392Z,100966
2018-10-18T19:23:17.328Z,100968
2018-10-18T19:25:46.107Z,100976
2018-10-18T19:28:14.951Z,100979
2018-10-18T19:30:44.541Z,100978
2018-10-18T19:33:13.385Z,100988
2018-10-18T19:35:44.100Z,100985
2018-10-18T19:38:14.151Z,100985
2018-10-18T19:40:42.954Z,100990
2018-10-18T19:43:11.799Z,100989
2018-10-18T19:45:40.775Z,100990
2018-10-18T19:48:09.522Z,100992
2018-10-18T19:50:38.363Z,100986
2018-10-18T19:53:07.989Z,100986
2018-10-18T19:55:37.524Z,100990
2018-10-18T19:58:06.388Z,100996
2018-10-18T20:00:35.253Z,100994
2018-10-18T20:03:04.840Z,100994
2018-10-18T20:05:34.424Z,101005
2018-10-18T20:08:03.369Z,101011
2018-10-18T20:10:32.094Z,101010
2018-10-18T20:13:01.017Z,101014
2018-10-18T20:15:29.785Z,101006
2018-10-18T20:17:58.644Z,101009
2018-10-18T20:20:27.478Z,101011
2018-10-18T20:22:56.345Z,100996
2018-10-18T20:25:25.238Z,101015
2018-10-18T20:27:54.107Z,101023
2018-10-18T20:30:22.975Z,101017
2018-10-18T20:32:51.865Z,101026
2018-10-18T20:35:20.701Z,101029
2018-10-18T20:37:49.541Z,101022
2018-10-18T20:40:18.381Z,101024
2018-10-18T20:42:47.232Z,101037
2018-10-18T20:45:16.128Z,101023
2018-10-18T20:47:45.009Z,101027
2018-10-18T20:50:13.811Z,101035
2018-10-18T20:52:42.643Z,101030
2018-10-18T20:55:11.496Z,101024
2018-10-18T20:57:40.338Z,101030
2018-10-18T21:00:09.984Z,101034
2018-10-18T21:02:38.770Z,101032
2018-10-18T21:05:07.616Z,101031
2018-10-18T21:07:37.213Z,101036
2018-10-18T21:10:06.064Z,101037
2018-10-18T21:12:34.902Z,101034
2018-10-18T21:15:03.817Z,101036
2018-10-18T21:17:32.616Z,101036
2018-10-18T21:20:01.466Z,101036
2018-10-18T21:22:31.071Z,101030
2018-10-18T21:24:59.924Z,101037
2018-10-18T21:27:28.777Z,101039
2018-10-18T21:29:57.619Z,101042
2018-10-18T21:32:26.459Z,101035
2018-10-18T21:34:55.355Z,101041
2018-10-18T21:37:24.182Z,101037
2018-10-18T21:39:53.033Z,101047
2018-10-18T21:42:21.873Z,101039
2018-10-18T21:44:50.718Z,101046
2018-10-18T21:47:19.588Z,101046
2018-10-18T21:49:48.423Z,101048
2018-10-18T21:52:17.274Z,101036
2018-10-18T21:54:46.113Z,101043
2018-10-18T21:57:15.001Z,101051
2018-10-18T21:59:43.805Z,101037
2018-10-18T22:02:12.667Z,101032
2018-10-18T22:04:41.506Z,101029
2018-10-18T22:07:10.357Z,101036
2018-10-18T22:09:39.806Z,101031
2018-10-18T22:12:08.687Z,101025
2018-10-18T22:14:37.545Z,101029
2018-10-18T22:17:06.459Z,101026
2018-10-18T22:19:35.247Z,101025
2018-10-18T22:22:04.090Z,101033
2018-10-18T22:24:32.945Z,101032
2018-10-18T22:27:01.826Z,101040
2018-10-18T22:29:30.650Z,101039
2018-10-18T22:31:59.502Z,101031
2018-10-18T22:34:28.415Z,101036
2018-10-18T22:36:57.192Z,101031
2018-10-18T22:39:26.035Z,101033
2018-10-18T22:41:54.890Z,101031
2018-10-18T22:44:23.726Z,101031
2018-10-18T22:46:52.578Z,101029
2018-10-18T22:49:21.416Z,101029
2018-10-18T22:51:50.997Z,101031
2018-10-18T22:54:20.442Z,101033
2018-10-18T22:56:49.287Z,101032
2018-10-18T22:59:18.128Z,101029
2018-10-18T23:01:46.994Z,101035
2018-10-18T23:04:16.569Z,101036
2018-10-18T23:06:45.408Z,101033
2018-10-18T23:09:14.352Z,101047
2018-10-18T23:11:43.112Z,101052
2018-10-18T23:14:11.945Z,101049
2018-10-18T23:16:41.571Z,101051
2018-10-18T23:19:10.448Z,101044
2018-10-18T23:21:40.033Z,101045
2018-10-18T23:24:08.918Z,101041
2018-10-18T23:26:37.760Z,101038
2018-10-18T23:29:06.625Z,101044
2018-10-18T23:31:36.199Z,101039
2018-10-18T23:34:05.043Z,101041
2018-10-18T23:36:33.881Z,101035
2018-10-18T23:39:03.480Z,101036
2018-10-18T23:41:32.303Z,101042
2018-10-18T23:44:01.889Z,101037
2018-10-18T23:46:30.743Z,101030
2018-10-18T23:48:59.577Z,101038
2018-10-18T23:51:28.461Z,101037
2018-10-18T23:53:57.265Z,101036
2018-10-18T23:56:26.856Z,101037
2018-10-18T23:58:55.751Z,101022
